sensor_id;sensor_type;location;lat;lon;timestamp;P1;durP1;ratioP1;P2;durP2;ratioP2
10489;SDS011;35569;48.402;10.670;2023-04-03T00:00:29;1.60;;;1.60;;
10489;SDS011;35569;48.402;10.670;2023-04-03T00:01:03;1.57;;;1.57;;
10489;SDS011;35569;48.402;10.670;2023-04-03T00:01:38;1.30;;;1.30;;
10489;SDS011;35569;48.402;10.670;2023-04-03T00:02:11;1.30;;;1.30;;
10489;SDS011;35569;48.402;10.670;2023-04-03T00:02:43;1.40;;;1.40;;
10489;SDS011;35569;48.402;10.670;2023-04-03T00:03:16;1.53;;;1.53;;
10489;SDS011;35569;48.402;10.670;2023-04-03T00:03:52;1.97;;;1.97;;
10489;SDS011;35569;48.402;10.670;2023-04-03T00:04:24;1.43;;;1.43;;
10489;SDS011;35569;48.402;10.670;2023-04-03T00:04:57;1.50;;;1.50;;
10489;SDS011;35569;48.402;10.670;2023-04-03T00:05:32;1.07;;;1.07;;
10489;SDS011;35569;48.402;10.670;2023-04-03T00:06:05;1.40;;;1.40;;
10489;SDS011;35569;48.402;10.670;2023-04-03T00:06:38;1.40;;;1.40;;
10489;SDS011;35569;48.402;10.670;2023-04-03T00:07:13;1.50;;;1.50;;
10489;SDS011;35569;48.402;10.670;2023-04-03T00:07:46;1.37;;;1.37;;
10489;SDS011;35569;48.402;10.670;2023-04-03T00:08:19;1.17;;;1.17;;
10489;SDS011;35569;48.402;10.670;2023-04-03T00:08:54;1.30;;;1.30;;
10489;SDS011;35569;48.402;10.670;2023-04-03T00:09:29;1.20;;;1.20;;
10489;SDS011;35569;48.402;10.670;2023-04-03T00:10:01;1.17;;;1.17;;
10489;SDS011;35569;48.402;10.670;2023-04-03T00:10:37;1.30;;;1.30;;
10489;SDS011;35569;48.402;10.670;2023-04-03T00:11:10;1.27;;;1.27;;
10489;SDS011;35569;48.402;10.670;2023-04-03T00:11:42;1.53;;;1.53;;
10489;SDS011;35569;48.402;10.670;2023-04-03T00:12:17;1.70;;;1.70;;
10489;SDS011;35569;48.402;10.670;2023-04-03T00:12:50;1.33;;;1.23;;
10489;SDS011;35569;48.402;10.670;2023-04-03T00:13:22;1.60;;;1.60;;
10489;SDS011;35569;48.402;10.670;2023-04-03T00:13:57;1.50;;;1.50;;
10489;SDS011;35569;48.402;10.670;2023-04-03T00:14:29;1.40;;;1.23;;
10489;SDS011;35569;48.402;10.670;2023-04-03T00:15:02;1.47;;;1.47;;
10489;SDS011;35569;48.402;10.670;2023-04-03T00:15:38;1.63;;;1.63;;
10489;SDS011;35569;48.402;10.670;2023-04-03T00:16:11;1.60;;;1.60;;
10489;SDS011;35569;48.402;10.670;2023-04-03T00:16:43;1.40;;;1.40;;
10489;SDS011;35569;48.402;10.670;2023-04-03T00:17:18;1.60;;;1.60;;
10489;SDS011;35569;48.402;10.670;2023-04-03T00:17:51;1.27;;;1.27;;
10489;SDS011;35569;48.402;10.670;2023-04-03T00:18:23;1.50;;;1.50;;
10489;SDS011;35569;48.402;10.670;2023-04-03T00:18:56;1.40;;;1.40;;
10489;SDS011;35569;48.402;10.670;2023-04-03T00:19:31;1.40;;;1.40;;
10489;SDS011;35569;48.402;10.670;2023-04-03T00:20:04;1.50;;;1.50;;
10489;SDS011;35569;48.402;10.670;2023-04-03T00:20:37;1.20;;;1.20;;
10489;SDS011;35569;48.402;10.670;2023-04-03T00:21:10;1.20;;;1.20;;
10489;SDS011;35569;48.402;10.670;2023-04-03T00:21:47;1.30;;;1.30;;
10489;SDS011;35569;48.402;10.670;2023-04-03T00:22:19;1.20;;;1.20;;
10489;SDS011;35569;48.402;10.670;2023-04-03T00:22:51;1.50;;;1.50;;
10489;SDS011;35569;48.402;10.670;2023-04-03T00:23:26;1.53;;;1.20;;
10489;SDS011;35569;48.402;10.670;2023-04-03T00:23:59;1.60;;;1.60;;
10489;SDS011;35569;48.402;10.670;2023-04-03T00:24:34;1.67;;;1.67;;
10489;SDS011;35569;48.402;10.670;2023-04-03T00:25:09;1.47;;;1.47;;
10489;SDS011;35569;48.402;10.670;2023-04-03T00:25:41;1.50;;;1.50;;
10489;SDS011;35569;48.402;10.670;2023-04-03T00:26:14;1.33;;;1.33;;
10489;SDS011;35569;48.402;10.670;2023-04-03T00:26:49;1.60;;;1.60;;
10489;SDS011;35569;48.402;10.670;2023-04-03T00:27:22;1.50;;;1.50;;
10489;SDS011;35569;48.402;10.670;2023-04-03T00:27:54;1.60;;;1.60;;
10489;SDS011;35569;48.402;10.670;2023-04-03T00:28:29;1.53;;;1.53;;
10489;SDS011;35569;48.402;10.670;2023-04-03T00:29:02;1.20;;;1.20;;
10489;SDS011;35569;48.402;10.670;2023-04-03T00:29:37;1.30;;;1.30;;
10489;SDS011;35569;48.402;10.670;2023-04-03T00:30:10;1.30;;;1.30;;
10489;SDS011;35569;48.402;10.670;2023-04-03T00:30:44;1.50;;;1.50;;
10489;SDS011;35569;48.402;10.670;2023-04-03T00:31:19;1.40;;;1.40;;
10489;SDS011;35569;48.402;10.670;2023-04-03T00:31:52;1.00;;;1.00;;
10489;SDS011;35569;48.402;10.670;2023-04-03T00:32:24;1.80;;;1.70;;
10489;SDS011;35569;48.402;10.670;2023-04-03T00:32:59;1.30;;;1.30;;
10489;SDS011;35569;48.402;10.670;2023-04-03T00:33:32;1.10;;;1.10;;
10489;SDS011;35569;48.402;10.670;2023-04-03T00:34:04;1.50;;;1.50;;
10489;SDS011;35569;48.402;10.670;2023-04-03T00:34:39;1.30;;;1.30;;
10489;SDS011;35569;48.402;10.670;2023-04-03T00:35:12;1.30;;;1.30;;
10489;SDS011;35569;48.402;10.670;2023-04-03T00:35:47;1.87;;;1.30;;
10489;SDS011;35569;48.402;10.670;2023-04-03T00:36:20;1.30;;;1.30;;
10489;SDS011;35569;48.402;10.670;2023-04-03T00:36:55;1.60;;;1.60;;
10489;SDS011;35569;48.402;10.670;2023-04-03T00:37:29;1.47;;;1.47;;
10489;SDS011;35569;48.402;10.670;2023-04-03T00:38:02;1.30;;;1.30;;
10489;SDS011;35569;48.402;10.670;2023-04-03T00:38:37;1.17;;;1.17;;
10489;SDS011;35569;48.402;10.670;2023-04-03T00:39:09;1.37;;;1.10;;
10489;SDS011;35569;48.402;10.670;2023-04-03T00:39:44;1.20;;;1.20;;
10489;SDS011;35569;48.402;10.670;2023-04-03T00:40:20;1.40;;;1.40;;
10489;SDS011;35569;48.402;10.670;2023-04-03T00:40:52;1.40;;;1.40;;
10489;SDS011;35569;48.402;10.670;2023-04-03T00:41:25;1.10;;;1.10;;
10489;SDS011;35569;48.402;10.670;2023-04-03T00:42:00;1.40;;;1.40;;
10489;SDS011;35569;48.402;10.670;2023-04-03T00:42:33;1.50;;;1.50;;
10489;SDS011;35569;48.402;10.670;2023-04-03T00:43:10;1.43;;;1.40;;
10489;SDS011;35569;48.402;10.670;2023-04-03T00:43:47;1.33;;;1.33;;
10489;SDS011;35569;48.402;10.670;2023-04-03T00:44:20;1.23;;;1.23;;
10489;SDS011;35569;48.402;10.670;2023-04-03T00:45:59;1.20;;;1.20;;
10489;SDS011;35569;48.402;10.670;2023-04-03T00:46:32;1.50;;;1.50;;
10489;SDS011;35569;48.402;10.670;2023-04-03T00:47:08;1.30;;;1.30;;
10489;SDS011;35569;48.402;10.670;2023-04-03T00:47:41;1.20;;;1.20;;
10489;SDS011;35569;48.402;10.670;2023-04-03T00:48:15;1.50;;;1.50;;
10489;SDS011;35569;48.402;10.670;2023-04-03T00:48:51;1.30;;;1.30;;
10489;SDS011;35569;48.402;10.670;2023-04-03T00:49:24;1.23;;;1.23;;
10489;SDS011;35569;48.402;10.670;2023-04-03T00:49:56;1.07;;;1.07;;
10489;SDS011;35569;48.402;10.670;2023-04-03T00:50:33;1.30;;;1.30;;
10489;SDS011;35569;48.402;10.670;2023-04-03T00:51:07;1.13;;;1.13;;
10489;SDS011;35569;48.402;10.670;2023-04-03T00:51:45;1.50;;;1.40;;
10489;SDS011;35569;48.402;10.670;2023-04-03T00:52:19;1.40;;;1.40;;
10489;SDS011;35569;48.402;10.670;2023-04-03T00:52:53;1.50;;;1.50;;
10489;SDS011;35569;48.402;10.670;2023-04-03T00:53:29;1.23;;;1.23;;
10489;SDS011;35569;48.402;10.670;2023-04-03T00:54:03;1.40;;;1.40;;
10489;SDS011;35569;48.402;10.670;2023-04-03T00:54:37;1.50;;;1.50;;
10489;SDS011;35569;48.402;10.670;2023-04-03T00:55:15;1.17;;;1.17;;
10489;SDS011;35569;48.402;10.670;2023-04-03T00:55:48;1.27;;;1.20;;
10489;SDS011;35569;48.402;10.670;2023-04-03T00:56:21;1.13;;;1.13;;
10489;SDS011;35569;48.402;10.670;2023-04-03T00:56:58;1.60;;;1.60;;
10489;SDS011;35569;48.402;10.670;2023-04-03T00:57:31;1.33;;;1.33;;
10489;SDS011;35569;48.402;10.670;2023-04-03T00:58:03;1.30;;;1.30;;
10489;SDS011;35569;48.402;10.670;2023-04-03T00:58:42;1.73;;;1.63;;
10489;SDS011;35569;48.402;10.670;2023-04-03T00:59:16;1.40;;;1.40;;
10489;SDS011;35569;48.402;10.670;2023-04-03T00:59:57;1.43;;;1.43;;
10489;SDS011;35569;48.402;10.670;2023-04-03T01:00:33;1.50;;;1.50;;
10489;SDS011;35569;48.402;10.670;2023-04-03T01:01:08;1.30;;;1.30;;
10489;SDS011;35569;48.402;10.670;2023-04-03T01:01:45;1.20;;;1.20;;
10489;SDS011;35569;48.402;10.670;2023-04-03T01:02:18;1.60;;;1.60;;
10489;SDS011;35569;48.402;10.670;2023-04-03T01:02:50;1.20;;;1.20;;
10489;SDS011;35569;48.402;10.670;2023-04-03T01:03:25;1.27;;;1.27;;
10489;SDS011;35569;48.402;10.670;2023-04-03T01:03:59;1.67;;;1.67;;
10489;SDS011;35569;48.402;10.670;2023-04-03T01:04:32;1.10;;;1.10;;
10489;SDS011;35569;48.402;10.670;2023-04-03T01:05:09;1.30;;;1.30;;
10489;SDS011;35569;48.402;10.670;2023-04-03T01:05:41;1.30;;;1.30;;
10489;SDS011;35569;48.402;10.670;2023-04-03T01:06:15;1.40;;;1.40;;
10489;SDS011;35569;48.402;10.670;2023-04-03T01:06:53;1.20;;;1.20;;
10489;SDS011;35569;48.402;10.670;2023-04-03T01:07:29;1.60;;;1.60;;
10489;SDS011;35569;48.402;10.670;2023-04-03T01:08:02;1.30;;;1.30;;
10489;SDS011;35569;48.402;10.670;2023-04-03T01:08:38;1.27;;;1.27;;
10489;SDS011;35569;48.402;10.670;2023-04-03T01:09:10;1.10;;;1.10;;
10489;SDS011;35569;48.402;10.670;2023-04-03T01:09:43;1.30;;;1.20;;
10489;SDS011;35569;48.402;10.670;2023-04-03T01:10:21;1.23;;;1.23;;
10489;SDS011;35569;48.402;10.670;2023-04-03T01:10:54;1.40;;;1.40;;
10489;SDS011;35569;48.402;10.670;2023-04-03T01:11:28;1.40;;;1.40;;
10489;SDS011;35569;48.402;10.670;2023-04-03T01:12:14;1.37;;;1.37;;
10489;SDS011;35569;48.402;10.670;2023-04-03T01:12:48;1.07;;;1.07;;
10489;SDS011;35569;48.402;10.670;2023-04-03T01:13:23;1.10;;;1.10;;
10489;SDS011;35569;48.402;10.670;2023-04-03T01:14:00;1.20;;;1.20;;
10489;SDS011;35569;48.402;10.670;2023-04-03T01:14:33;1.10;;;1.10;;
10489;SDS011;35569;48.402;10.670;2023-04-03T01:15:08;1.10;;;1.10;;
10489;SDS011;35569;48.402;10.670;2023-04-03T01:15:45;1.00;;;1.00;;
10489;SDS011;35569;48.402;10.670;2023-04-03T01:16:17;1.37;;;1.37;;
10489;SDS011;35569;48.402;10.670;2023-04-03T01:16:52;1.00;;;1.00;;
10489;SDS011;35569;48.402;10.670;2023-04-03T01:17:28;1.10;;;1.10;;
10489;SDS011;35569;48.402;10.670;2023-04-03T01:18:02;1.13;;;1.13;;
10489;SDS011;35569;48.402;10.670;2023-04-03T01:18:37;1.37;;;1.37;;
10489;SDS011;35569;48.402;10.670;2023-04-03T01:19:14;1.10;;;1.10;;
10489;SDS011;35569;48.402;10.670;2023-04-03T01:19:48;1.10;;;1.10;;
10489;SDS011;35569;48.402;10.670;2023-04-03T01:22:02;0.80;;;0.80;;
10489;SDS011;35569;48.402;10.670;2023-04-03T01:22:43;1.00;;;1.00;;
10489;SDS011;35569;48.402;10.670;2023-04-03T01:23:35;1.17;;;1.17;;
10489;SDS011;35569;48.402;10.670;2023-04-03T01:24:15;1.10;;;1.10;;
10489;SDS011;35569;48.402;10.670;2023-04-03T01:24:54;1.10;;;1.10;;
10489;SDS011;35569;48.402;10.670;2023-04-03T01:25:30;1.03;;;0.93;;
10489;SDS011;35569;48.402;10.670;2023-04-03T01:26:03;1.00;;;1.00;;
10489;SDS011;35569;48.402;10.670;2023-04-03T01:26:38;1.10;;;1.10;;
10489;SDS011;35569;48.402;10.670;2023-04-03T01:27:11;1.30;;;1.30;;
10489;SDS011;35569;48.402;10.670;2023-04-03T01:27:46;1.00;;;1.00;;
10489;SDS011;35569;48.402;10.670;2023-04-03T01:28:19;1.30;;;1.30;;
10489;SDS011;35569;48.402;10.670;2023-04-03T01:28:54;1.17;;;1.17;;
10489;SDS011;35569;48.402;10.670;2023-04-03T01:29:26;1.13;;;1.13;;
10489;SDS011;35569;48.402;10.670;2023-04-03T01:30:02;1.00;;;1.00;;
10489;SDS011;35569;48.402;10.670;2023-04-03T01:30:35;0.90;;;0.90;;
10489;SDS011;35569;48.402;10.670;2023-04-03T01:31:15;1.30;;;1.30;;
10489;SDS011;35569;48.402;10.670;2023-04-03T01:31:56;1.00;;;1.00;;
10489;SDS011;35569;48.402;10.670;2023-04-03T01:32:29;2.20;;;1.27;;
10489;SDS011;35569;48.402;10.670;2023-04-03T01:33:04;1.10;;;1.10;;
10489;SDS011;35569;48.402;10.670;2023-04-03T01:33:37;1.13;;;1.13;;
10489;SDS011;35569;48.402;10.670;2023-04-03T01:34:10;1.13;;;1.13;;
10489;SDS011;35569;48.402;10.670;2023-04-03T01:34:45;1.20;;;1.20;;
10489;SDS011;35569;48.402;10.670;2023-04-03T01:35:17;1.20;;;1.20;;
10489;SDS011;35569;48.402;10.670;2023-04-03T01:35:50;1.10;;;0.93;;
10489;SDS011;35569;48.402;10.670;2023-04-03T01:36:26;1.10;;;1.10;;
10489;SDS011;35569;48.402;10.670;2023-04-03T01:37:01;1.00;;;1.00;;
10489;SDS011;35569;48.402;10.670;2023-04-03T01:37:33;0.90;;;0.90;;
10489;SDS011;35569;48.402;10.670;2023-04-03T01:38:09;1.27;;;1.27;;
10489;SDS011;35569;48.402;10.670;2023-04-03T01:38:42;1.10;;;1.10;;
10489;SDS011;35569;48.402;10.670;2023-04-03T01:39:14;1.40;;;1.40;;
10489;SDS011;35569;48.402;10.670;2023-04-03T01:39:46;1.27;;;1.27;;
10489;SDS011;35569;48.402;10.670;2023-04-03T01:40:21;1.30;;;1.30;;
10489;SDS011;35569;48.402;10.670;2023-04-03T01:40:54;1.03;;;1.03;;
10489;SDS011;35569;48.402;10.670;2023-04-03T01:41:26;1.00;;;1.00;;
10489;SDS011;35569;48.402;10.670;2023-04-03T01:42:07;0.97;;;0.97;;
10489;SDS011;35569;48.402;10.670;2023-04-03T01:42:46;0.83;;;0.80;;
10489;SDS011;35569;48.402;10.670;2023-04-03T01:43:18;1.10;;;1.10;;
10489;SDS011;35569;48.402;10.670;2023-04-03T01:43:51;1.00;;;1.00;;
10489;SDS011;35569;48.402;10.670;2023-04-03T01:44:26;0.80;;;0.80;;
10489;SDS011;35569;48.402;10.670;2023-04-03T01:44:59;1.10;;;1.10;;
10489;SDS011;35569;48.402;10.670;2023-04-03T01:45:34;1.00;;;1.00;;
10489;SDS011;35569;48.402;10.670;2023-04-03T01:46:06;0.93;;;0.93;;
10489;SDS011;35569;48.402;10.670;2023-04-03T01:46:39;0.83;;;0.83;;
10489;SDS011;35569;48.402;10.670;2023-04-03T01:47:17;1.03;;;1.03;;
10489;SDS011;35569;48.402;10.670;2023-04-03T01:47:50;0.93;;;0.93;;
10489;SDS011;35569;48.402;10.670;2023-04-03T01:48:23;0.90;;;0.90;;
10489;SDS011;35569;48.402;10.670;2023-04-03T01:48:58;1.00;;;1.00;;
10489;SDS011;35569;48.402;10.670;2023-04-03T01:49:30;1.00;;;0.97;;
10489;SDS011;35569;48.402;10.670;2023-04-03T01:50:03;2.40;;;1.13;;
10489;SDS011;35569;48.402;10.670;2023-04-03T01:50:39;1.00;;;1.00;;
10489;SDS011;35569;48.402;10.670;2023-04-03T01:51:11;1.00;;;1.00;;
10489;SDS011;35569;48.402;10.670;2023-04-03T01:51:44;1.07;;;1.07;;
10489;SDS011;35569;48.402;10.670;2023-04-03T01:52:19;1.07;;;1.07;;
10489;SDS011;35569;48.402;10.670;2023-04-03T01:52:51;0.90;;;0.90;;
10489;SDS011;35569;48.402;10.670;2023-04-03T01:53:24;0.93;;;0.93;;
10489;SDS011;35569;48.402;10.670;2023-04-03T01:53:59;0.80;;;0.80;;
10489;SDS011;35569;48.402;10.670;2023-04-03T01:54:32;0.90;;;0.90;;
10489;SDS011;35569;48.402;10.670;2023-04-03T01:55:04;1.00;;;1.00;;
10489;SDS011;35569;48.402;10.670;2023-04-03T01:55:40;1.20;;;1.20;;
10489;SDS011;35569;48.402;10.670;2023-04-03T01:56:13;1.10;;;1.10;;
10489;SDS011;35569;48.402;10.670;2023-04-03T01:56:46;0.90;;;0.90;;
10489;SDS011;35569;48.402;10.670;2023-04-03T01:57:22;1.00;;;1.00;;
10489;SDS011;35569;48.402;10.670;2023-04-03T01:57:54;1.00;;;1.00;;
10489;SDS011;35569;48.402;10.670;2023-04-03T01:58:29;0.90;;;0.90;;
10489;SDS011;35569;48.402;10.670;2023-04-03T01:59:02;0.90;;;0.90;;
10489;SDS011;35569;48.402;10.670;2023-04-03T01:59:34;1.00;;;1.00;;
10489;SDS011;35569;48.402;10.670;2023-04-03T02:00:11;1.00;;;1.00;;
10489;SDS011;35569;48.402;10.670;2023-04-03T02:00:45;1.00;;;1.00;;
10489;SDS011;35569;48.402;10.670;2023-04-03T02:01:17;0.93;;;0.93;;
10489;SDS011;35569;48.402;10.670;2023-04-03T02:01:53;0.90;;;0.90;;
10489;SDS011;35569;48.402;10.670;2023-04-03T02:02:28;0.80;;;0.80;;
10489;SDS011;35569;48.402;10.670;2023-04-03T02:03:01;0.70;;;0.70;;
10489;SDS011;35569;48.402;10.670;2023-04-03T02:03:36;1.17;;;1.17;;
10489;SDS011;35569;48.402;10.670;2023-04-03T02:04:09;1.10;;;1.10;;
10489;SDS011;35569;48.402;10.670;2023-04-03T02:04:41;0.80;;;0.80;;
10489;SDS011;35569;48.402;10.670;2023-04-03T02:05:16;0.83;;;0.83;;
10489;SDS011;35569;48.402;10.670;2023-04-03T02:05:49;1.00;;;0.90;;
10489;SDS011;35569;48.402;10.670;2023-04-03T02:06:21;1.00;;;1.00;;
10489;SDS011;35569;48.402;10.670;2023-04-03T02:06:57;0.80;;;0.80;;
10489;SDS011;35569;48.402;10.670;2023-04-03T02:07:29;1.03;;;1.03;;
10489;SDS011;35569;48.402;10.670;2023-04-03T02:08:01;0.87;;;0.87;;
10489;SDS011;35569;48.402;10.670;2023-04-03T02:08:36;0.93;;;0.93;;
10489;SDS011;35569;48.402;10.670;2023-04-03T02:09:10;1.00;;;1.00;;
10489;SDS011;35569;48.402;10.670;2023-04-03T02:09:42;0.90;;;0.90;;
10489;SDS011;35569;48.402;10.670;2023-04-03T02:10:17;0.90;;;0.90;;
10489;SDS011;35569;48.402;10.670;2023-04-03T02:10:50;0.90;;;0.90;;
10489;SDS011;35569;48.402;10.670;2023-04-03T02:11:23;1.07;;;1.07;;
10489;SDS011;35569;48.402;10.670;2023-04-03T02:11:57;0.90;;;0.90;;
10489;SDS011;35569;48.402;10.670;2023-04-03T02:12:31;0.90;;;0.90;;
10489;SDS011;35569;48.402;10.670;2023-04-03T02:13:03;1.10;;;1.10;;
10489;SDS011;35569;48.402;10.670;2023-04-03T02:13:39;0.70;;;0.70;;
10489;SDS011;35569;48.402;10.670;2023-04-03T02:14:11;0.80;;;0.80;;
10489;SDS011;35569;48.402;10.670;2023-04-03T02:14:44;0.90;;;0.90;;
10489;SDS011;35569;48.402;10.670;2023-04-03T02:15:20;0.80;;;0.80;;
10489;SDS011;35569;48.402;10.670;2023-04-03T02:15:52;0.80;;;0.80;;
10489;SDS011;35569;48.402;10.670;2023-04-03T02:16:25;0.80;;;0.80;;
10489;SDS011;35569;48.402;10.670;2023-04-03T02:17:00;0.90;;;0.90;;
10489;SDS011;35569;48.402;10.670;2023-04-03T02:17:35;1.10;;;1.10;;
10489;SDS011;35569;48.402;10.670;2023-04-03T02:18:08;0.70;;;0.70;;
10489;SDS011;35569;48.402;10.670;2023-04-03T02:18:43;0.97;;;0.97;;
10489;SDS011;35569;48.402;10.670;2023-04-03T02:19:16;0.70;;;0.70;;
10489;SDS011;35569;48.402;10.670;2023-04-03T02:19:48;0.87;;;0.87;;
10489;SDS011;35569;48.402;10.670;2023-04-03T02:20:23;0.80;;;0.80;;
10489;SDS011;35569;48.402;10.670;2023-04-03T02:20:55;1.00;;;1.00;;
10489;SDS011;35569;48.402;10.670;2023-04-03T02:21:28;1.00;;;1.00;;
10489;SDS011;35569;48.402;10.670;2023-04-03T02:22:03;0.90;;;0.90;;
10489;SDS011;35569;48.402;10.670;2023-04-03T02:22:36;0.93;;;0.93;;
10489;SDS011;35569;48.402;10.670;2023-04-03T02:23:09;0.90;;;0.90;;
10489;SDS011;35569;48.402;10.670;2023-04-03T02:23:44;0.97;;;0.97;;
10489;SDS011;35569;48.402;10.670;2023-04-03T02:24:16;1.10;;;1.00;;
10489;SDS011;35569;48.402;10.670;2023-04-03T02:24:48;0.90;;;0.90;;
10489;SDS011;35569;48.402;10.670;2023-04-03T02:25:24;1.07;;;0.97;;
10489;SDS011;35569;48.402;10.670;2023-04-03T02:26:04;0.90;;;0.90;;
10489;SDS011;35569;48.402;10.670;2023-04-03T02:26:37;0.90;;;0.90;;
10489;SDS011;35569;48.402;10.670;2023-04-03T02:27:12;1.00;;;1.00;;
10489;SDS011;35569;48.402;10.670;2023-04-03T02:27:45;1.03;;;1.03;;
10489;SDS011;35569;48.402;10.670;2023-04-03T02:28:17;0.70;;;0.70;;
10489;SDS011;35569;48.402;10.670;2023-04-03T02:28:52;1.20;;;1.20;;
10489;SDS011;35569;48.402;10.670;2023-04-03T02:29:24;0.80;;;0.80;;
10489;SDS011;35569;48.402;10.670;2023-04-03T02:29:57;0.93;;;0.93;;
10489;SDS011;35569;48.402;10.670;2023-04-03T02:30:30;0.80;;;0.80;;
10489;SDS011;35569;48.402;10.670;2023-04-03T02:31:05;0.90;;;0.90;;
10489;SDS011;35569;48.402;10.670;2023-04-03T02:31:39;0.90;;;0.90;;
10489;SDS011;35569;48.402;10.670;2023-04-03T02:32:12;0.97;;;0.97;;
10489;SDS011;35569;48.402;10.670;2023-04-03T02:32:50;1.00;;;1.00;;
10489;SDS011;35569;48.402;10.670;2023-04-03T02:33:23;0.90;;;0.90;;
10489;SDS011;35569;48.402;10.670;2023-04-03T02:33:55;0.80;;;0.80;;
10489;SDS011;35569;48.402;10.670;2023-04-03T02:34:30;0.80;;;0.80;;
10489;SDS011;35569;48.402;10.670;2023-04-03T02:35:05;1.10;;;1.10;;
10489;SDS011;35569;48.402;10.670;2023-04-03T02:35:38;1.00;;;1.00;;
10489;SDS011;35569;48.402;10.670;2023-04-03T02:36:13;1.00;;;1.00;;
10489;SDS011;35569;48.402;10.670;2023-04-03T02:36:49;0.80;;;0.80;;
10489;SDS011;35569;48.402;10.670;2023-04-03T02:37:23;0.80;;;0.80;;
10489;SDS011;35569;48.402;10.670;2023-04-03T02:37:59;1.00;;;0.90;;
10489;SDS011;35569;48.402;10.670;2023-04-03T02:38:31;1.00;;;1.00;;
10489;SDS011;35569;48.402;10.670;2023-04-03T02:39:04;0.70;;;0.70;;
10489;SDS011;35569;48.402;10.670;2023-04-03T02:39:39;1.10;;;1.10;;
10489;SDS011;35569;48.402;10.670;2023-04-03T02:40:12;0.83;;;0.83;;
10489;SDS011;35569;48.402;10.670;2023-04-03T02:40:44;1.90;;;0.80;;
10489;SDS011;35569;48.402;10.670;2023-04-03T02:41:19;0.80;;;0.80;;
10489;SDS011;35569;48.402;10.670;2023-04-03T02:41:54;0.83;;;0.83;;
10489;SDS011;35569;48.402;10.670;2023-04-03T02:42:29;1.00;;;1.00;;
10489;SDS011;35569;48.402;10.670;2023-04-03T02:43:04;0.93;;;0.93;;
10489;SDS011;35569;48.402;10.670;2023-04-03T02:43:38;0.70;;;0.70;;
10489;SDS011;35569;48.402;10.670;2023-04-03T02:44:10;0.70;;;0.70;;
10489;SDS011;35569;48.402;10.670;2023-04-03T02:44:46;0.80;;;0.80;;
10489;SDS011;35569;48.402;10.670;2023-04-03T02:45:18;0.90;;;0.90;;
10489;SDS011;35569;48.402;10.670;2023-04-03T02:45:51;0.93;;;0.93;;
10489;SDS011;35569;48.402;10.670;2023-04-03T02:46:26;0.80;;;0.80;;
10489;SDS011;35569;48.402;10.670;2023-04-03T02:47:00;0.80;;;0.80;;
10489;SDS011;35569;48.402;10.670;2023-04-03T02:47:32;0.70;;;0.70;;
10489;SDS011;35569;48.402;10.670;2023-04-03T02:48:10;0.93;;;0.93;;
10489;SDS011;35569;48.402;10.670;2023-04-03T02:48:42;1.00;;;1.00;;
10489;SDS011;35569;48.402;10.670;2023-04-03T02:49:17;2.00;;;1.00;;
10489;SDS011;35569;48.402;10.670;2023-04-03T02:49:50;0.90;;;0.90;;
10489;SDS011;35569;48.402;10.670;2023-04-03T02:50:24;1.00;;;1.00;;
10489;SDS011;35569;48.402;10.670;2023-04-03T02:50:59;1.13;;;1.13;;
10489;SDS011;35569;48.402;10.670;2023-04-03T02:51:32;0.93;;;0.93;;
10489;SDS011;35569;48.402;10.670;2023-04-03T02:52:05;1.27;;;1.17;;
10489;SDS011;35569;48.402;10.670;2023-04-03T02:52:40;1.00;;;1.00;;
10489;SDS011;35569;48.402;10.670;2023-04-03T02:53:12;1.03;;;0.97;;
10489;SDS011;35569;48.402;10.670;2023-04-03T02:53:45;0.80;;;0.80;;
10489;SDS011;35569;48.402;10.670;2023-04-03T02:54:24;1.10;;;1.10;;
10489;SDS011;35569;48.402;10.670;2023-04-03T02:55:02;1.13;;;1.13;;
10489;SDS011;35569;48.402;10.670;2023-04-03T02:55:38;1.00;;;1.00;;
10489;SDS011;35569;48.402;10.670;2023-04-03T02:56:10;1.00;;;1.00;;
10489;SDS011;35569;48.402;10.670;2023-04-03T02:56:42;0.70;;;0.70;;
10489;SDS011;35569;48.402;10.670;2023-04-03T02:57:17;0.87;;;0.87;;
10489;SDS011;35569;48.402;10.670;2023-04-03T02:57:51;0.80;;;0.80;;
10489;SDS011;35569;48.402;10.670;2023-04-03T02:58:23;0.93;;;0.93;;
10489;SDS011;35569;48.402;10.670;2023-04-03T02:59:01;0.90;;;0.90;;
10489;SDS011;35569;48.402;10.670;2023-04-03T02:59:34;0.77;;;0.77;;
10489;SDS011;35569;48.402;10.670;2023-04-03T03:00:07;0.83;;;0.83;;
10489;SDS011;35569;48.402;10.670;2023-04-03T03:00:43;0.80;;;0.80;;
10489;SDS011;35569;48.402;10.670;2023-04-03T03:01:16;0.90;;;0.90;;
10489;SDS011;35569;48.402;10.670;2023-04-03T03:01:48;0.93;;;0.93;;
10489;SDS011;35569;48.402;10.670;2023-04-03T03:02:23;1.10;;;1.10;;
10489;SDS011;35569;48.402;10.670;2023-04-03T03:02:56;0.87;;;0.87;;
10489;SDS011;35569;48.402;10.670;2023-04-03T03:03:31;0.80;;;0.80;;
10489;SDS011;35569;48.402;10.670;2023-04-03T03:04:06;0.80;;;0.80;;
10489;SDS011;35569;48.402;10.670;2023-04-03T03:04:38;0.80;;;0.80;;
10489;SDS011;35569;48.402;10.670;2023-04-03T03:05:10;0.70;;;0.70;;
10489;SDS011;35569;48.402;10.670;2023-04-03T03:05:46;1.00;;;1.00;;
10489;SDS011;35569;48.402;10.670;2023-04-03T03:06:19;0.90;;;0.90;;
10489;SDS011;35569;48.402;10.670;2023-04-03T03:06:52;1.07;;;1.07;;
10489;SDS011;35569;48.402;10.670;2023-04-03T03:07:27;0.90;;;0.90;;
10489;SDS011;35569;48.402;10.670;2023-04-03T03:07:59;0.73;;;0.73;;
10489;SDS011;35569;48.402;10.670;2023-04-03T03:08:32;0.90;;;0.90;;
10489;SDS011;35569;48.402;10.670;2023-04-03T03:09:07;1.10;;;1.10;;
10489;SDS011;35569;48.402;10.670;2023-04-03T03:09:39;0.80;;;0.80;;
10489;SDS011;35569;48.402;10.670;2023-04-03T03:10:14;0.60;;;0.60;;
10489;SDS011;35569;48.402;10.670;2023-04-03T03:10:47;0.80;;;0.80;;
10489;SDS011;35569;48.402;10.670;2023-04-03T03:11:19;1.03;;;1.00;;
10489;SDS011;35569;48.402;10.670;2023-04-03T03:11:54;0.80;;;0.80;;
10489;SDS011;35569;48.402;10.670;2023-04-03T03:12:26;0.80;;;0.80;;
10489;SDS011;35569;48.402;10.670;2023-04-03T03:13:00;0.87;;;0.87;;
10489;SDS011;35569;48.402;10.670;2023-04-03T03:13:35;0.77;;;0.77;;
10489;SDS011;35569;48.402;10.670;2023-04-03T03:14:07;0.80;;;0.80;;
10489;SDS011;35569;48.402;10.670;2023-04-03T03:14:40;0.80;;;0.80;;
10489;SDS011;35569;48.402;10.670;2023-04-03T03:15:15;1.00;;;1.00;;
10489;SDS011;35569;48.402;10.670;2023-04-03T03:15:48;1.00;;;1.00;;
10489;SDS011;35569;48.402;10.670;2023-04-03T03:16:21;0.90;;;0.90;;
10489;SDS011;35569;48.402;10.670;2023-04-03T03:16:54;0.93;;;0.93;;
10489;SDS011;35569;48.402;10.670;2023-04-03T03:17:29;0.70;;;0.70;;
10489;SDS011;35569;48.402;10.670;2023-04-03T03:18:02;0.80;;;0.80;;
10489;SDS011;35569;48.402;10.670;2023-04-03T03:18:37;0.80;;;0.80;;
10489;SDS011;35569;48.402;10.670;2023-04-03T03:19:12;0.87;;;0.87;;
10489;SDS011;35569;48.402;10.670;2023-04-03T03:19:44;0.80;;;0.80;;
10489;SDS011;35569;48.402;10.670;2023-04-03T03:20:17;0.80;;;0.80;;
10489;SDS011;35569;48.402;10.670;2023-04-03T03:20:54;0.87;;;0.87;;
10489;SDS011;35569;48.402;10.670;2023-04-03T03:21:27;0.80;;;0.80;;
10489;SDS011;35569;48.402;10.670;2023-04-03T03:22:00;1.17;;;1.17;;
10489;SDS011;35569;48.402;10.670;2023-04-03T03:22:35;0.97;;;0.97;;
10489;SDS011;35569;48.402;10.670;2023-04-03T03:23:08;0.80;;;0.80;;
10489;SDS011;35569;48.402;10.670;2023-04-03T03:23:40;1.00;;;1.00;;
10489;SDS011;35569;48.402;10.670;2023-04-03T03:24:15;0.90;;;0.90;;
10489;SDS011;35569;48.402;10.670;2023-04-03T03:24:48;0.93;;;0.93;;
10489;SDS011;35569;48.402;10.670;2023-04-03T03:25:23;0.80;;;0.80;;